createdAt,value
2019-03-23T00:01:47.496Z,99749.18
2019-03-23T00:04:15.991Z,99742.92
2019-03-23T00:06:44.524Z,99742.34
2019-03-23T00:09:13.043Z,99743.45
2019-03-23T00:11:41.532Z,99737.47
2019-03-23T00:14:10.056Z,99736.13
2019-03-23T00:16:38.548Z,99724.38
2019-03-23T00:19:07.091Z,99719.14
2019-03-23T00:21:35.589Z,99718.87
2019-03-23T00:24:04.164Z,99720.75
2019-03-23T00:26:32.690Z,99725.16
2019-03-23T00:29:01.183Z,99722.45
2019-03-23T00:31:29.709Z,99713.83
2019-03-23T00:33:58.206Z,99713.49
2019-03-23T00:36:26.712Z,99703.61
2019-03-23T00:38:55.232Z,99702.92
2019-03-23T00:41:23.724Z,99701.72
2019-03-23T00:43:52.245Z,99697.02
2019-03-23T00:46:20.735Z,99695.85
2019-03-23T00:48:49.266Z,99685.92
2019-03-23T00:51:17.791Z,99679.41
2019-03-23T00:53:46.280Z,99686.22
2019-03-23T00:56:17.463Z,99683.72
2019-03-23T00:58:45.998Z,99685.19
2019-03-23T01:01:14.668Z,99680.25
2019-03-23T01:03:43.196Z,99675.13
2019-03-23T01:06:11.724Z,99678.02
2019-03-23T01:08:40.223Z,99672.34
2019-03-23T01:11:08.726Z,99683.98
2019-03-23T01:13:37.298Z,99680.52
2019-03-23T01:16:05.859Z,99674.67
2019-03-23T01:18:34.553Z,99671.70
2019-03-23T01:21:03.054Z,99677.84
2019-03-23T01:23:31.564Z,99670.67
2019-03-23T01:26:00.101Z,99670.70
2019-03-23T01:28:28.660Z,99661.34
2019-03-23T01:30:57.190Z,99660.31
2019-03-23T01:33:25.680Z,99654.30
2019-03-23T01:35:54.183Z,99657.21
2019-03-23T01:38:22.760Z,99656.30
2019-03-23T01:40:51.282Z,99653.00
2019-03-23T01:43:19.782Z,99649.73
2019-03-23T01:45:48.282Z,99651.05
2019-03-23T01:48:16.795Z,99646.91
2019-03-23T01:50:45.360Z,99642.27
2019-03-23T01:53:13.854Z,99645.27
2019-03-23T01:55:42.362Z,99643.08
2019-03-23T01:58:10.925Z,99647.17
2019-03-23T02:00:39.415Z,99647.80
2019-03-23T02:03:07.930Z,99640.84
2019-03-23T02:05:36.417Z,99640.56
2019-03-23T02:08:05.010Z,99635.85
2019-03-23T02:10:33.524Z,99639.47
2019-03-23T02:13:01.997Z,99632.90
2019-03-23T02:15:30.496Z,99630.14
2019-03-23T02:17:58.979Z,99627.39
2019-03-23T02:20:27.664Z,99634.34
2019-03-23T02:22:56.151Z,99627.17
2019-03-23T02:25:24.637Z,99634.34
2019-03-23T02:27:53.130Z,99629.16
2019-03-23T02:30:21.644Z,99630.30
2019-03-23T02:32:50.166Z,99626.41
2019-03-23T02:35:18.713Z,99624.82
2019-03-23T02:37:47.199Z,99630.06
2019-03-23T02:40:15.701Z,99627.58
2019-03-23T02:42:44.217Z,99624.30
2019-03-23T02:45:13.451Z,99617.69
2019-03-23T02:47:41.977Z,99617.20
2019-03-23T02:50:11.103Z,99616.66
2019-03-23T02:52:39.649Z,99617.76
2019-03-23T02:55:11.809Z,99610.02
2019-03-23T02:57:40.348Z,99605.15
2019-03-23T03:00:13.797Z,99605.96
2019-03-23T03:02:42.315Z,99600.41
2019-03-23T03:05:11.229Z,99598.14
2019-03-23T03:07:43.250Z,99601.75
2019-03-23T03:10:13.348Z,99600.13
2019-03-23T03:12:41.844Z,99601.22
2019-03-23T03:15:10.638Z,99603.98
2019-03-23T03:17:39.157Z,99605.36
2019-03-23T03:20:10.058Z,99608.14
2019-03-23T03:22:38.542Z,99604.28
2019-03-23T03:25:08.403Z,99597.95
2019-03-23T03:27:36.964Z,99598.48
2019-03-23T03:30:10.986Z,99592.98
2019-03-23T03:32:39.599Z,99596.55
2019-03-23T03:35:08.467Z,99589.77
2019-03-23T03:37:36.951Z,99593.08
2019-03-23T03:40:09.086Z,99594.12
2019-03-23T03:42:37.680Z,99590.75
2019-03-23T03:45:07.812Z,99591.56
2019-03-23T03:47:36.330Z,99590.75
2019-03-23T03:50:09.053Z,99584.95
2019-03-23T03:52:37.656Z,99591.57
2019-03-23T03:55:07.753Z,99583.87
2019-03-23T03:57:36.369Z,99579.48
2019-03-23T04:00:07.518Z,99569.83
2019-03-23T04:02:36.034Z,99577.00
2019-03-23T04:05:05.651Z,99572.06
2019-03-23T04:07:34.150Z,99568.81
2019-03-23T04:10:02.717Z,99576.27
2019-03-23T04:12:31.245Z,99571.61
2019-03-23T04:14:59.699Z,99575.77
2019-03-23T04:17:28.191Z,99570.45
2019-03-23T04:19:56.690Z,99569.52
2019-03-23T04:22:25.191Z,99575.97
2019-03-23T04:24:53.675Z,99575.45
2019-03-23T04:27:22.193Z,99569.91
2019-03-23T04:29:50.689Z,99573.83
2019-03-23T04:32:19.187Z,99568.03
2019-03-23T04:34:47.673Z,99563.00
2019-03-23T04:37:16.187Z,99565.10
2019-03-23T04:39:44.711Z,99569.14
2019-03-23T04:42:13.211Z,99558.95
2019-03-23T04:44:41.695Z,99555.39
2019-03-23T04:47:10.216Z,99560.06
2019-03-23T04:49:38.720Z,99556.19
2019-03-23T04:52:07.232Z,99567.75
2019-03-23T04:54:38.848Z,99561.95
2019-03-23T04:57:06.741Z,99554.92
2019-03-23T04:59:35.244Z,99565.29
2019-03-23T05:02:04.101Z,99563.06
2019-03-23T05:04:32.598Z,99561.98
2019-03-23T05:07:01.081Z,99560.53
2019-03-23T05:09:29.635Z,99553.02
2019-03-23T05:11:58.119Z,99558.30
2019-03-23T05:14:26.610Z,99562.44
2019-03-23T05:16:55.112Z,99560.58
2019-03-23T05:19:23.623Z,99561.31
2019-03-23T05:21:52.151Z,99561.91
2019-03-23T05:24:20.640Z,99555.20
2019-03-23T05:26:49.221Z,99559.43
2019-03-23T05:29:17.715Z,99554.17
2019-03-23T05:31:46.197Z,99556.90
2019-03-23T05:34:14.683Z,99552.73
2019-03-23T05:36:43.184Z,99553.58
2019-03-23T05:39:11.711Z,99550.58
2019-03-23T05:41:40.199Z,99552.42
2019-03-23T05:44:08.690Z,99553.25
2019-03-23T05:46:37.207Z,99550.86
2019-03-23T05:49:05.702Z,99558.89
2019-03-23T05:51:34.210Z,99562.69
2019-03-23T05:54:02.696Z,99560.92
2019-03-23T05:56:31.227Z,99563.44
2019-03-23T05:58:59.712Z,99555.44
2019-03-23T06:01:28.198Z,99563.39
2019-03-23T06:03:56.813Z,99559.99
2019-03-23T06:06:25.299Z,99576.28
2019-03-23T06:08:55.240Z,99567.17
2019-03-23T06:11:25.004Z,99562.19
2019-03-23T06:13:53.498Z,99560.75
2019-03-23T06:16:22.047Z,99569.19
2019-03-23T06:18:50.566Z,99571.33
2019-03-23T06:21:19.081Z,99575.50
2019-03-23T06:23:47.570Z,99579.94
2019-03-23T06:26:16.094Z,99577.28
2019-03-23T06:28:44.576Z,99573.11
2019-03-23T06:31:13.098Z,99568.84
2019-03-23T06:33:41.588Z,99571.33
2019-03-23T06:36:10.122Z,99570.42
2019-03-23T06:38:38.620Z,99565.94
2019-03-23T06:41:07.133Z,99571.12
2019-03-23T06:43:35.659Z,99570.15
2019-03-23T06:46:04.212Z,99566.52
2019-03-23T06:48:32.730Z,99568.45
2019-03-23T06:51:03.203Z,99570.08
2019-03-23T06:53:31.436Z,99570.80
2019-03-23T06:55:59.951Z,99571.71
2019-03-23T06:58:28.455Z,99568.66
2019-03-23T07:00:56.955Z,99566.10
2019-03-23T07:03:25.444Z,99564.48
2019-03-23T07:05:53.958Z,99561.84
2019-03-23T07:08:31.515Z,99563.80
2019-03-23T07:10:52.663Z,99567.89
2019-03-23T07:13:21.181Z,99567.09
2019-03-23T07:15:49.665Z,99568.76
2019-03-23T07:18:18.193Z,99570.31
2019-03-23T07:20:46.684Z,99575.84
2019-03-23T07:23:16.819Z,99577.25
2019-03-23T07:25:45.299Z,99570.28
2019-03-23T07:28:13.833Z,99572.89
2019-03-23T07:30:42.401Z,99558.11
2019-03-23T07:33:10.887Z,99566.97
2019-03-23T07:35:39.389Z,99563.62
2019-03-23T07:38:07.874Z,99561.14
2019-03-23T07:40:36.468Z,99568.80
2019-03-23T07:43:05.047Z,99575.39
2019-03-23T07:45:33.537Z,99574.70
2019-03-23T07:48:02.038Z,99575.48
2019-03-23T07:50:30.541Z,99575.59
2019-03-23T07:52:59.056Z,99573.05
2019-03-23T07:55:27.543Z,99573.25
2019-03-23T07:57:56.066Z,99574.52
2019-03-23T08:00:24.566Z,99571.69
2019-03-23T08:02:53.092Z,99572.12
2019-03-23T08:05:21.663Z,99575.75
2019-03-23T08:07:50.155Z,99568.82
2019-03-23T08:10:32.179Z,99574.66
2019-03-23T08:13:00.310Z,99582.48
2019-03-23T08:15:29.356Z,99574.98
2019-03-23T08:17:58.035Z,99574.84
2019-03-23T08:20:26.691Z,99569.98
2019-03-23T08:22:55.374Z,99567.66
2019-03-23T08:25:23.903Z,99564.23
2019-03-23T08:27:52.471Z,99563.97
2019-03-23T08:30:20.972Z,99558.37
2019-03-23T08:32:49.528Z,99561.10
2019-03-23T08:35:18.388Z,99552.27
2019-03-23T08:37:46.913Z,99550.42
2019-03-23T08:40:15.399Z,99546.33
2019-03-23T08:42:43.902Z,99541.25
2019-03-23T08:45:12.674Z,99539.41
2019-03-23T08:47:41.170Z,99531.03
2019-03-23T08:50:09.944Z,99527.95
2019-03-23T08:52:38.472Z,99522.99
2019-03-23T08:55:07.274Z,99523.91
2019-03-23T08:57:35.770Z,99528.44
2019-03-23T09:00:07.934Z,99525.59
2019-03-23T09:02:36.477Z,99525.33
2019-03-23T09:05:06.233Z,99521.98
2019-03-23T09:07:34.798Z,99523.38
2019-03-23T09:10:05.159Z,99520.50
2019-03-23T09:12:33.658Z,99516.59
2019-03-23T09:15:02.192Z,99518.39
2019-03-23T09:17:30.681Z,99512.92
2019-03-23T09:19:59.225Z,99514.87
2019-03-23T09:22:27.834Z,99510.42
2019-03-23T09:24:57.446Z,99504.81
2019-03-23T09:27:25.947Z,99500.83
2019-03-23T09:29:56.460Z,99503.62
2019-03-23T09:32:24.998Z,99499.83
2019-03-23T09:34:53.536Z,99492.34
2019-03-23T09:37:22.052Z,99483.57
2019-03-23T09:39:50.578Z,99483.94
2019-03-23T09:42:19.110Z,99493.94
2019-03-23T09:44:47.704Z,99484.23
2019-03-23T09:47:17.619Z,99476.20
2019-03-23T09:49:46.146Z,99483.22
2019-03-23T09:52:16.615Z,99473.33
2019-03-23T09:54:45.418Z,99484.73
2019-03-23T09:57:13.932Z,99484.81
2019-03-23T09:59:42.487Z,99486.75
2019-03-23T10:02:11.025Z,99483.37
2019-03-23T10:04:39.519Z,99485.48
2019-03-23T10:07:08.040Z,99481.80
2019-03-23T10:09:38.146Z,99476.55
2019-03-23T10:12:06.648Z,99470.30
2019-03-23T10:14:35.206Z,99472.63
2019-03-23T10:17:03.746Z,99472.45
2019-03-23T10:19:32.266Z,99469.72
2019-03-23T10:22:00.794Z,99453.73
2019-03-23T10:24:29.387Z,99461.91
2019-03-23T10:26:57.949Z,99453.03
2019-03-23T10:29:26.547Z,99447.08
2019-03-23T10:31:55.821Z,99441.86
2019-03-23T10:34:24.400Z,99446.97
2019-03-23T10:36:53.096Z,99442.05
2019-03-23T10:39:21.761Z,99433.08
2019-03-23T10:41:50.267Z,99426.49
2019-03-23T10:44:18.865Z,99420.41
2019-03-23T10:46:47.474Z,99419.35
2019-03-23T10:49:16.027Z,99417.09
2019-03-23T10:51:44.572Z,99412.05
2019-03-23T10:54:13.154Z,99407.70
2019-03-23T10:56:41.702Z,99410.50
2019-03-23T10:59:10.211Z,99411.24
2019-03-23T11:01:38.730Z,99414.16
2019-03-23T11:04:07.333Z,99411.66
2019-03-23T11:06:35.860Z,99419.80
2019-03-23T11:09:06.030Z,99419.27
2019-03-23T11:11:34.556Z,99420.45
2019-03-23T11:14:03.045Z,99419.84
2019-03-23T11:16:31.546Z,99414.73
2019-03-23T11:19:00.040Z,99415.25
2019-03-23T11:21:28.531Z,99405.97
2019-03-23T11:23:57.048Z,99400.72
2019-03-23T11:26:28.156Z,99400.72
2019-03-23T11:28:56.891Z,99394.41
2019-03-23T11:31:25.381Z,99395.50
2019-03-23T11:33:53.890Z,99388.95
2019-03-23T11:36:22.380Z,99385.54
2019-03-23T11:38:50.903Z,99381.70
2019-03-23T11:41:19.433Z,99367.42
2019-03-23T11:43:47.927Z,99365.33
2019-03-23T11:46:17.086Z,99363.34
2019-03-23T11:48:45.649Z,99363.34
2019-03-23T11:51:14.156Z,99346.13
2019-03-23T11:53:42.640Z,99346.13
2019-03-23T11:56:11.139Z,99347.34
2019-03-23T11:58:39.668Z,99351.61
2019-03-23T12:01:08.146Z,99353.25
2019-03-23T12:03:36.674Z,99341.57
2019-03-23T12:06:05.267Z,99348.87
2019-03-23T12:08:33.816Z,99351.80
2019-03-23T12:11:03.275Z,99341.20
2019-03-23T12:13:31.814Z,99340.34
2019-03-23T12:16:00.489Z,99332.64
2019-03-23T12:18:28.982Z,99328.50
2019-03-23T12:20:57.509Z,99327.56
2019-03-23T12:23:26.009Z,99323.79
2019-03-23T12:25:55.443Z,99313.11
2019-03-23T12:28:23.943Z,99311.89
2019-03-23T12:30:52.511Z,99309.83
2019-03-23T12:33:21.558Z,99307.96
2019-03-23T12:35:50.198Z,99300.03
2019-03-23T12:38:18.781Z,99301.09
2019-03-23T12:40:47.273Z,99296.71
2019-03-23T12:43:16.559Z,99292.77
2019-03-23T12:45:45.350Z,99295.44
2019-03-23T12:48:13.933Z,99288.44
2019-03-23T12:50:42.415Z,99290.17
2019-03-23T12:53:10.930Z,99285.92
2019-03-23T12:55:39.414Z,99292.98
2019-03-23T12:58:07.930Z,99276.59
2019-03-23T13:00:36.422Z,99288.04
2019-03-23T13:03:04.920Z,99276.63
2019-03-23T13:05:33.447Z,99275.42
2019-03-23T13:08:01.935Z,99275.42
2019-03-23T13:10:30.520Z,99273.88
2019-03-23T13:12:59.046Z,99271.03
2019-03-23T13:15:27.533Z,99267.47
2019-03-23T13:17:57.404Z,99266.91
2019-03-23T13:20:26.015Z,99270.16
2019-03-23T13:22:55.564Z,99266.77
2019-03-23T13:25:24.105Z,99269.97
2019-03-23T13:27:52.594Z,99264.83
2019-03-23T13:30:21.111Z,99265.34
2019-03-23T13:32:52.483Z,99269.02
2019-03-23T13:35:21.000Z,99259.81
2019-03-23T13:37:49.487Z,99250.95
2019-03-23T13:40:18.031Z,99257.42
2019-03-23T13:42:46.529Z,99259.25
2019-03-23T13:45:17.089Z,99259.97
2019-03-23T13:47:45.631Z,99257.27
2019-03-23T13:50:15.823Z,99249.92
2019-03-23T13:52:44.432Z,99246.84
2019-03-23T13:55:24.637Z,99238.48
2019-03-23T13:57:53.156Z,99239.95
2019-03-23T14:00:21.645Z,99230.64
2019-03-23T14:02:51.951Z,99230.91
2019-03-23T14:05:20.471Z,99230.91
2019-03-23T14:07:48.984Z,99229.55
2019-03-23T14:10:17.496Z,99228.44
2019-03-23T14:12:45.984Z,99225.42
2019-03-23T14:15:14.535Z,99218.21
2019-03-23T14:17:43.053Z,99213.77
2019-03-23T14:20:11.677Z,99218.91
2019-03-23T14:22:40.184Z,99215.58
2019-03-23T14:25:08.810Z,99215.30
2019-03-23T14:27:37.346Z,99213.54
2019-03-23T14:30:09.383Z,99203.58
2019-03-23T14:32:37.971Z,99202.19
2019-03-23T14:35:07.231Z,99202.19
2019-03-23T14:37:35.884Z,99199.98
2019-03-23T14:40:07.925Z,99197.36
2019-03-23T14:42:37.199Z,99193.64
2019-03-23T14:45:08.884Z,99196.38
2019-03-23T14:47:37.405Z,99196.38
2019-03-23T14:50:07.033Z,99188.10
2019-03-23T14:52:35.725Z,99188.10
2019-03-23T14:55:04.986Z,99190.39
2019-03-23T14:57:33.512Z,99190.39
2019-03-23T15:00:02.033Z,99192.34
2019-03-23T15:02:30.530Z,99197.97
2019-03-23T15:04:59.026Z,99188.74
2019-03-23T15:07:27.610Z,99187.68
2019-03-23T15:09:56.103Z,99188.75
2019-03-23T15:12:24.618Z,99186.27
2019-03-23T15:14:53.112Z,99182.11
2019-03-23T15:17:21.622Z,99183.52
2019-03-23T15:19:50.126Z,99179.83
2019-03-23T15:22:18.616Z,99179.78
2019-03-23T15:24:47.137Z,99177.07
2019-03-23T15:27:15.617Z,99178.25
2019-03-23T15:29:44.146Z,99176.34
2019-03-23T15:32:12.627Z,99180.88
2019-03-23T15:34:41.110Z,99177.23
2019-03-23T15:37:09.617Z,99170.20
2019-03-23T15:39:38.099Z,99177.15
2019-03-23T15:42:06.633Z,99172.23
2019-03-23T15:44:35.147Z,99165.48
2019-03-23T15:47:03.646Z,99165.48
2019-03-23T15:49:32.161Z,99174.20
2019-03-23T15:52:00.645Z,99164.03
2019-03-23T15:54:29.153Z,99160.85
2019-03-23T15:56:57.750Z,99155.84
2019-03-23T15:59:26.263Z,99155.84
2019-03-23T16:01:54.781Z,99153.31
2019-03-23T16:04:23.269Z,99152.95
2019-03-23T16:06:51.769Z,99155.05
2019-03-23T16:09:20.292Z,99155.04
2019-03-23T16:11:48.781Z,99150.40
2019-03-23T16:14:17.310Z,99149.27
2019-03-23T16:16:45.807Z,99149.75
2019-03-23T16:19:14.535Z,99147.44
2019-03-23T16:21:43.029Z,99143.31
2019-03-23T16:24:11.512Z,99148.70
2019-03-23T16:26:40.036Z,99150.70
2019-03-23T16:29:09.669Z,99151.73
2019-03-23T16:31:38.424Z,99151.94
2019-03-23T16:34:06.914Z,99153.61
2019-03-23T16:36:35.437Z,99159.36
2019-03-23T16:39:05.104Z,99154.16
2019-03-23T16:41:33.907Z,99156.67
2019-03-23T16:44:02.510Z,99150.09
2019-03-23T16:46:30.992Z,99152.85
2019-03-23T16:49:00.401Z,99153.91
2019-03-23T16:51:28.999Z,99148.59
2019-03-23T16:53:57.526Z,99150.66
2019-03-23T16:56:26.016Z,99146.88
2019-03-23T16:58:54.604Z,99144.22
2019-03-23T17:01:23.132Z,99149.38
2019-03-23T17:03:51.619Z,99150.41
2019-03-23T17:06:20.127Z,99157.71
2019-03-23T17:08:48.611Z,99158.66
2019-03-23T17:11:17.130Z,99157.75
2019-03-23T17:13:45.630Z,99159.42
2019-03-23T17:16:14.160Z,99165.03
2019-03-23T17:18:43.191Z,99157.83
2019-03-23T17:21:11.685Z,99163.32
2019-03-23T17:23:40.189Z,99169.02
2019-03-23T17:26:08.713Z,99162.28
2019-03-23T17:28:37.201Z,99163.80
2019-03-23T17:31:05.708Z,99165.57
2019-03-23T17:33:34.196Z,99164.99
2019-03-23T17:36:02.797Z,99161.02
2019-03-23T17:38:31.287Z,99167.63
2019-03-23T17:40:59.811Z,99155.75
2019-03-23T17:43:28.351Z,99162.48
2019-03-23T17:45:56.878Z,99162.38
2019-03-23T17:48:25.375Z,99158.75
2019-03-23T17:50:53.881Z,99157.80
2019-03-23T17:53:22.878Z,99157.98
2019-03-23T17:55:51.370Z,99156.10
2019-03-23T17:58:19.895Z,99156.88
2019-03-23T18:00:48.481Z,99162.97
2019-03-23T18:03:21.487Z,99164.34
2019-03-23T18:05:50.095Z,99160.38
2019-03-23T18:08:18.667Z,99158.66
2019-03-23T18:10:47.210Z,99160.73
2019-03-23T18:13:16.692Z,99159.78
2019-03-23T18:15:45.422Z,99158.30
2019-03-23T18:18:14.252Z,99167.55
2019-03-23T18:20:42.767Z,99161.51
2019-03-23T18:23:11.615Z,99167.31
2019-03-23T18:25:40.139Z,99171.55
2019-03-23T18:28:08.622Z,99175.59
2019-03-23T18:30:41.629Z,99170.59
2019-03-23T18:33:10.482Z,99177.70
2019-03-23T18:35:38.982Z,99179.01
2019-03-23T18:38:07.747Z,99182.69
2019-03-23T18:40:36.646Z,99179.34
2019-03-23T18:43:06.009Z,99191.95
2019-03-23T18:45:36.421Z,99185.37
2019-03-23T18:48:05.534Z,99182.69
2019-03-23T18:50:35.601Z,99189.08
2019-03-23T18:53:04.464Z,99189.49
2019-03-23T18:55:32.968Z,99184.01
2019-03-23T18:58:01.487Z,99185.06
2019-03-23T19:00:37.302Z,99185.73
2019-03-23T19:03:06.000Z,99185.51
2019-03-23T19:05:35.227Z,99177.26
2019-03-23T19:08:04.173Z,99183.16
2019-03-23T19:10:32.821Z,99185.27
2019-03-23T19:13:01.317Z,99191.03
2019-03-23T19:15:29.820Z,99181.20
2019-03-23T19:17:58.379Z,99185.55
2019-03-23T19:20:26.902Z,99183.85
2019-03-23T19:22:55.398Z,99187.06
2019-03-23T19:25:24.012Z,99187.88
2019-03-23T19:27:52.587Z,99189.85
2019-03-23T19:30:21.546Z,99191.39
2019-03-23T19:32:50.050Z,99192.95
2019-03-23T19:35:18.574Z,99190.65
2019-03-23T19:37:47.088Z,99185.75
2019-03-23T19:40:16.702Z,99188.05
2019-03-23T19:42:45.260Z,99184.95
2019-03-23T19:45:15.083Z,99185.90
2019-03-23T19:47:45.980Z,99185.09
2019-03-23T19:50:16.392Z,99185.81
2019-03-23T19:52:44.914Z,99184.09
2019-03-23T19:55:13.481Z,99183.55
2019-03-23T19:57:41.989Z,99180.69
2019-03-23T20:00:12.617Z,99178.86
2019-03-23T20:02:41.278Z,99182.57
2019-03-23T20:05:10.013Z,99177.95
2019-03-23T20:07:39.200Z,99175.95
2019-03-23T20:10:10.246Z,99173.80
2019-03-23T20:12:40.161Z,99176.57
2019-03-23T20:15:09.312Z,99172.91
2019-03-23T20:17:37.973Z,99175.11
2019-03-23T20:20:08.220Z,99177.08
2019-03-23T20:22:36.755Z,99178.80
2019-03-23T20:25:09.662Z,99179.94
2019-03-23T20:27:38.196Z,99180.84
2019-03-23T20:30:09.736Z,99185.64
2019-03-23T20:32:38.450Z,99185.40
2019-03-23T20:35:08.002Z,99189.65
2019-03-23T20:37:36.507Z,99185.08
2019-03-23T20:40:07.325Z,99186.88
2019-03-23T20:42:35.815Z,99179.02
2019-03-23T20:45:07.165Z,99178.22
2019-03-23T20:47:35.671Z,99176.16
2019-03-23T20:50:05.149Z,99181.56
2019-03-23T20:52:33.641Z,99177.94
2019-03-23T20:55:02.498Z,99179.05
2019-03-23T20:57:37.346Z,99179.05
2019-03-23T21:00:01.208Z,99178.55
2019-03-23T21:02:29.733Z,99171.53
2019-03-23T21:04:58.238Z,99168.81
2019-03-23T21:07:26.743Z,99171.90
2019-03-23T21:09:56.915Z,99171.13
2019-03-23T21:12:27.252Z,99173.68
2019-03-23T21:14:55.620Z,99167.22
2019-03-23T21:17:24.144Z,99173.65
2019-03-23T21:19:52.675Z,99174.09
2019-03-23T21:22:21.229Z,99175.40
2019-03-23T21:24:49.753Z,99175.09
2019-03-23T21:27:18.250Z,99169.48
2019-03-23T21:29:46.775Z,99168.27
2019-03-23T21:32:15.292Z,99169.69
2019-03-23T21:34:43.777Z,99171.02
2019-03-23T21:37:12.282Z,99172.36
2019-03-23T21:39:40.771Z,99171.45
2019-03-23T21:42:09.293Z,99170.56
2019-03-23T21:44:37.781Z,99171.83
2019-03-23T21:47:06.282Z,99169.44
2019-03-23T21:49:34.776Z,99175.72
2019-03-23T21:52:03.299Z,99177.62
2019-03-23T21:54:31.884Z,99176.12
2019-03-23T21:57:00.414Z,99178.56
2019-03-23T21:59:28.918Z,99173.45
2019-03-23T22:01:57.424Z,99181.72
2019-03-23T22:04:25.943Z,99180.65
2019-03-23T22:06:57.226Z,99176.28
2019-03-23T22:09:25.750Z,99179.27
2019-03-23T22:11:54.352Z,99178.36
2019-03-23T22:14:22.871Z,99182.39
2019-03-23T22:16:51.396Z,99185.85
2019-03-23T22:19:19.905Z,99187.40
2019-03-23T22:21:48.433Z,99177.70
2019-03-23T22:24:16.930Z,99180.13
2019-03-23T22:26:45.452Z,99180.13
2019-03-23T22:29:13.982Z,99174.98
2019-03-23T22:31:42.477Z,99176.00
2019-03-23T22:34:11.001Z,99178.84
2019-03-23T22:36:39.487Z,99175.45
2019-03-23T22:39:08.149Z,99179.41
2019-03-23T22:41:36.731Z,99180.14
2019-03-23T22:44:05.372Z,99179.64
2019-03-23T22:46:33.863Z,99185.69
2019-03-23T22:49:02.391Z,99186.30
2019-03-23T22:51:30.920Z,99188.62
2019-03-23T22:53:59.415Z,99189.95
2019-03-23T22:56:27.921Z,99182.28
2019-03-23T22:58:56.418Z,99187.77
2019-03-23T23:01:25.138Z,99183.93
2019-03-23T23:03:53.649Z,99184.30
2019-03-23T23:06:22.271Z,99189.82
2019-03-23T23:08:50.760Z,99181.58
2019-03-23T23:11:19.254Z,99180.75
2019-03-23T23:13:47.740Z,99184.81
2019-03-23T23:16:16.789Z,99185.04
2019-03-23T23:18:45.286Z,99196.59
2019-03-23T23:21:13.806Z,99196.67
2019-03-23T23:23:42.331Z,99198.47
2019-03-23T23:26:10.861Z,99210.02
2019-03-23T23:28:40.927Z,99212.92
2019-03-23T23:31:09.473Z,99217.56
2019-03-23T23:33:39.408Z,99220.23
2019-03-23T23:36:07.965Z,99227.62
2019-03-23T23:38:36.475Z,99222.84
2019-03-23T23:41:05.041Z,99232.70
2019-03-23T23:43:33.534Z,99235.61
2019-03-23T23:46:02.021Z,99233.20
2019-03-23T23:48:30.527Z,99237.33
2019-03-23T23:50:59.012Z,99231.68
2019-03-23T23:53:27.535Z,99236.59
2019-03-23T23:55:56.020Z,99238.25
2019-03-23T23:58:24.522Z,99238.25
